createdAt,value
2018-06-12T00:00:37.938Z,15.54
2018-06-12T00:01:37.906Z,15.5
2018-06-12T00:02:37.913Z,15.5
2018-06-12T00:03:37.964Z,15.48
2018-06-12T00:04:38.079Z,15.58
2018-06-12T00:05:37.878Z,15.68
2018-06-12T00:06:37.889Z,15.62
2018-06-12T00:07:37.886Z,15.57
2018-06-12T00:08:37.927Z,15.6
2018-06-12T00:09:37.925Z,15.61
2018-06-12T00:10:37.892Z,15.56
2018-06-12T00:11:37.894Z,15.68
2018-06-12T00:12:37.954Z,15.44
2018-06-12T00:13:37.895Z,15.47
2018-06-12T00:14:37.941Z,15.46
2018-06-12T00:15:37.899Z,15.52
2018-06-12T00:16:37.930Z,15.54
2018-06-12T00:17:37.945Z,15.52
2018-06-12T00:18:37.882Z,15.52
2018-06-12T00:19:37.888Z,15.59
2018-06-12T00:20:37.942Z,15.52
2018-06-12T00:21:37.899Z,15.52
2018-06-12T00:22:38.124Z,15.56
2018-06-12T00:23:37.947Z,15.5
2018-06-12T00:24:37.932Z,15.45
2018-06-12T00:25:37.913Z,15.49
2018-06-12T00:26:37.967Z,15.5
2018-06-12T00:27:38.149Z,15.46
2018-06-12T00:28:37.890Z,15.47
2018-06-12T00:29:37.890Z,15.44
2018-06-12T00:30:37.925Z,15.47
2018-06-12T00:31:37.909Z,15.44
2018-06-12T00:32:37.937Z,15.43
2018-06-12T00:33:37.900Z,15.42
2018-06-12T00:34:37.879Z,15.44
2018-06-12T00:35:37.897Z,15.49
2018-06-12T00:36:37.881Z,15.49
2018-06-12T00:37:37.912Z,15.52
2018-06-12T00:38:37.957Z,15.48
2018-06-12T00:39:38.082Z,15.41
2018-06-12T00:40:38.045Z,15.4
2018-06-12T00:41:37.899Z,15.45
2018-06-12T00:42:37.951Z,15.31
2018-06-12T00:43:37.931Z,15.38
2018-06-12T00:44:37.897Z,15.38
2018-06-12T00:45:38.032Z,15.42
2018-06-12T00:46:37.881Z,15.45
2018-06-12T00:47:37.878Z,15.46
2018-06-12T00:48:37.893Z,15.32
2018-06-12T00:49:37.948Z,15.32
2018-06-12T00:50:37.988Z,15.41
2018-06-12T00:51:37.889Z,15.39
2018-06-12T00:52:38.023Z,15.42
2018-06-12T00:53:37.963Z,15.44
2018-06-12T00:54:37.886Z,15.4
2018-06-12T00:55:37.995Z,15.41
2018-06-12T00:56:37.887Z,15.43
2018-06-12T00:57:38.009Z,15.41
2018-06-12T00:58:37.881Z,15.5
2018-06-12T00:59:38.244Z,15.35
2018-06-12T01:00:37.997Z,15.33
2018-06-12T01:01:37.947Z,15.33
2018-06-12T01:02:37.923Z,15.3
2018-06-12T01:03:37.862Z,15.32
2018-06-12T01:04:37.908Z,15.29
2018-06-12T01:05:37.872Z,15.32
2018-06-12T01:06:37.882Z,15.3
2018-06-12T01:07:38.034Z,15.36
2018-06-12T01:08:38.060Z,15.39
2018-06-12T01:09:38.092Z,15.38
2018-06-12T01:10:37.887Z,15.32
2018-06-12T01:11:37.897Z,15.39
2018-06-12T01:12:37.932Z,15.17
2018-06-12T01:13:37.865Z,15.19
2018-06-12T01:14:37.868Z,15.17
2018-06-12T01:15:37.899Z,15.25
2018-06-12T01:16:37.866Z,15.28
2018-06-12T01:17:37.870Z,15.15
2018-06-12T01:18:37.861Z,15.06
2018-06-12T01:19:37.909Z,14.91
2018-06-12T01:20:37.886Z,14.91
2018-06-12T01:21:37.875Z,14.92
2018-06-12T01:22:37.869Z,14.93
2018-06-12T01:23:37.888Z,14.88
2018-06-12T01:24:37.915Z,14.91
2018-06-12T01:25:37.916Z,14.8
2018-06-12T01:26:37.910Z,14.88
2018-06-12T01:27:37.890Z,14.8
2018-06-12T01:28:37.871Z,14.85
2018-06-12T01:29:37.928Z,14.73
2018-06-12T01:30:37.955Z,14.67
2018-06-12T01:31:37.884Z,14.62
2018-06-12T01:32:37.854Z,14.7
2018-06-12T01:33:37.899Z,14.68
2018-06-12T01:34:37.855Z,14.65
2018-06-12T01:35:37.886Z,14.79
2018-06-12T01:36:37.905Z,14.71
2018-06-12T01:37:37.977Z,14.7
2018-06-12T01:38:37.888Z,14.67
2018-06-12T01:39:38.003Z,14.62
2018-06-12T01:40:37.976Z,14.59
2018-06-12T01:41:38.480Z,14.65
2018-06-12T01:42:37.851Z,14.72
2018-06-12T01:43:38.228Z,14.59
2018-06-12T01:44:37.887Z,14.54
2018-06-12T01:45:38.157Z,14.59
2018-06-12T01:46:37.920Z,14.61
2018-06-12T01:47:37.869Z,14.59
2018-06-12T01:48:37.999Z,14.49
2018-06-12T01:49:37.853Z,14.53
2018-06-12T01:50:37.853Z,14.56
2018-06-12T01:51:37.887Z,14.63
2018-06-12T01:52:37.938Z,14.6
2018-06-12T01:53:37.895Z,14.51
2018-06-12T01:54:37.859Z,14.47
2018-06-12T01:55:37.919Z,14.53
2018-06-12T01:56:37.909Z,14.47
2018-06-12T01:57:37.900Z,14.51
2018-06-12T01:58:37.866Z,14.46
2018-06-12T01:59:37.904Z,14.49
2018-06-12T02:00:37.879Z,14.46
2018-06-12T02:01:38.029Z,14.56
2018-06-12T02:02:38.033Z,14.43
2018-06-12T02:03:38.276Z,14.57
2018-06-12T02:04:37.848Z,14.53
2018-06-12T02:05:37.844Z,14.57
2018-06-12T02:06:37.870Z,14.56
2018-06-12T02:07:37.873Z,14.62
2018-06-12T02:08:37.886Z,14.62
2018-06-12T02:09:37.862Z,14.51
2018-06-12T02:10:37.852Z,14.55
2018-06-12T02:11:37.867Z,14.58
2018-06-12T02:12:37.888Z,14.64
2018-06-12T02:13:37.907Z,14.55
2018-06-12T02:14:37.890Z,14.52
2018-06-12T02:15:37.855Z,14.43
2018-06-12T02:16:37.875Z,14.49
2018-06-12T02:17:37.873Z,14.51
2018-06-12T02:18:37.849Z,14.46
2018-06-12T02:19:37.865Z,14.37
2018-06-12T02:20:37.853Z,14.39
2018-06-12T02:21:38.126Z,14.4
2018-06-12T02:22:37.913Z,14.31
2018-06-12T02:23:37.857Z,14.4
2018-06-12T02:24:37.858Z,14.31
2018-06-12T02:25:38.124Z,14.29
2018-06-12T02:26:37.853Z,14.31
2018-06-12T02:27:37.845Z,14.31
2018-06-12T02:28:37.857Z,14.31
2018-06-12T02:29:37.840Z,14.34
2018-06-12T02:30:37.867Z,14.34
2018-06-12T02:31:37.892Z,14.3
2018-06-12T02:32:37.853Z,14.31
2018-06-12T02:33:37.889Z,14.27
2018-06-12T02:34:37.882Z,14.37
2018-06-12T02:35:37.902Z,14.26
2018-06-12T02:36:37.844Z,14.31
2018-06-12T02:37:37.915Z,14.37
2018-06-12T02:38:37.852Z,14.38
2018-06-12T02:39:37.870Z,14.4
2018-06-12T02:40:37.870Z,14.29
2018-06-12T02:41:37.904Z,14.33
2018-06-12T02:42:37.857Z,14.35
2018-06-12T02:43:37.875Z,14.38
2018-06-12T02:44:38.528Z,14.34
2018-06-12T02:45:37.890Z,14.25
2018-06-12T02:46:37.863Z,14.35
2018-06-12T02:47:37.868Z,14.28
2018-06-12T02:48:37.848Z,14.28
2018-06-12T02:49:37.880Z,14.35
2018-06-12T02:50:37.868Z,14.33
2018-06-12T02:51:38.031Z,14.4
2018-06-12T02:52:37.871Z,14.42
2018-06-12T02:53:38.046Z,14.42
2018-06-12T02:54:37.838Z,14.39
2018-06-12T02:55:37.846Z,14.38
2018-06-12T02:56:37.891Z,14.39
2018-06-12T02:57:37.848Z,14.4
2018-06-12T02:58:38.149Z,14.41
2018-06-12T02:59:37.849Z,14.29
2018-06-12T03:00:38.057Z,14.31
2018-06-12T03:01:37.900Z,14.25
2018-06-12T03:02:37.892Z,14.3
2018-06-12T03:03:37.990Z,14.33
2018-06-12T03:04:37.852Z,14.32
2018-06-12T03:05:37.863Z,14.34
2018-06-12T03:06:37.850Z,14.35
2018-06-12T03:07:37.881Z,14.41
2018-06-12T03:08:37.860Z,14.46
2018-06-12T03:09:37.894Z,14.34
2018-06-12T03:10:37.845Z,14.34
2018-06-12T03:11:37.850Z,14.3
2018-06-12T03:12:37.846Z,14.23
2018-06-12T03:13:37.867Z,14.23
2018-06-12T03:14:37.849Z,14.25
2018-06-12T03:15:37.849Z,14.26
2018-06-12T03:16:37.941Z,14.29
2018-06-12T03:17:37.891Z,14.27
2018-06-12T03:18:37.837Z,14.26
2018-06-12T03:19:37.833Z,14.29
2018-06-12T03:20:37.864Z,14.33
2018-06-12T03:21:37.823Z,14.34
2018-06-12T03:22:37.817Z,14.36
2018-06-12T03:23:37.829Z,14.41
2018-06-12T03:24:37.873Z,14.31
2018-06-12T03:25:37.852Z,14.35
2018-06-12T03:26:38.015Z,14.36
2018-06-12T03:27:37.825Z,14.28
2018-06-12T03:28:37.926Z,14.29
2018-06-12T03:29:37.877Z,14.3
2018-06-12T03:30:37.859Z,14.37
2018-06-12T03:31:37.927Z,14.3
2018-06-12T03:32:38.056Z,14.35
2018-06-12T03:33:38.031Z,14.36
2018-06-12T03:34:37.853Z,14.37
2018-06-12T03:35:37.826Z,14.4
2018-06-12T03:36:37.847Z,14.38
2018-06-12T03:37:37.827Z,14.36
2018-06-12T03:38:37.832Z,14.42
2018-06-12T03:39:38.000Z,14.36
2018-06-12T03:40:37.807Z,14.33
2018-06-12T03:41:37.817Z,14.41
2018-06-12T03:42:37.815Z,14.39
2018-06-12T03:43:37.828Z,14.41
2018-06-12T03:44:37.874Z,14.44
2018-06-12T03:45:37.844Z,14.42
2018-06-12T03:46:37.829Z,14.39
2018-06-12T03:47:37.829Z,14.36
2018-06-12T03:48:37.821Z,14.42
2018-06-12T03:49:37.829Z,14.37
2018-06-12T03:50:37.893Z,14.38
2018-06-12T03:51:37.822Z,14.33
2018-06-12T03:52:37.826Z,14.39
2018-06-12T03:53:37.813Z,14.36
2018-06-12T03:54:37.828Z,14.37
2018-06-12T03:55:37.821Z,14.29
2018-06-12T03:56:37.808Z,14.22
2018-06-12T03:57:38.377Z,14.24
2018-06-12T03:58:37.856Z,14.28
2018-06-12T03:59:38.048Z,14.35
2018-06-12T04:00:37.912Z,14.26
2018-06-12T04:01:37.837Z,14.2
2018-06-12T04:02:37.830Z,14.23
2018-06-12T04:03:37.862Z,14.27
2018-06-12T04:04:37.802Z,14.36
2018-06-12T04:05:37.829Z,14.24
2018-06-12T04:06:37.810Z,14.34
2018-06-12T04:07:38.143Z,14.26
2018-06-12T04:08:37.786Z,14.31
2018-06-12T04:09:37.844Z,14.27
2018-06-12T04:10:37.855Z,14.22
2018-06-12T04:11:38.021Z,14.22
2018-06-12T04:12:37.876Z,14.29
2018-06-12T04:13:37.838Z,14.28
2018-06-12T04:14:37.817Z,14.37
2018-06-12T04:15:37.845Z,14.25
2018-06-12T04:16:37.842Z,14.27
2018-06-12T04:17:37.873Z,14.24
2018-06-12T04:18:38.064Z,14.22
2018-06-12T04:19:37.843Z,14.23
2018-06-12T04:20:37.952Z,14.26
2018-06-12T04:21:37.815Z,14.29
2018-06-12T04:22:37.798Z,14.21
2018-06-12T04:23:37.865Z,14.16
2018-06-12T04:24:37.872Z,14.24
2018-06-12T04:25:37.809Z,14.22
2018-06-12T04:26:37.817Z,14.25
2018-06-12T04:27:37.855Z,14.28
2018-06-12T04:28:37.818Z,14.24
2018-06-12T04:29:38.040Z,14.29
2018-06-12T04:30:38.500Z,14.29
2018-06-12T04:31:38.162Z,14.29
2018-06-12T04:32:37.830Z,14.29
2018-06-12T04:33:37.853Z,14.33
2018-06-12T04:34:37.864Z,14.31
2018-06-12T04:35:37.802Z,14.25
2018-06-12T04:36:37.873Z,14.29
2018-06-12T04:37:37.817Z,14.29
2018-06-12T04:38:37.808Z,14.3
2018-06-12T04:39:37.841Z,14.3
2018-06-12T04:40:37.817Z,14.24
2018-06-12T04:41:37.809Z,14.25
2018-06-12T04:42:37.803Z,14.23
2018-06-12T04:43:38.126Z,14.14
2018-06-12T04:44:37.835Z,14.17
2018-06-12T04:45:37.863Z,14.22
2018-06-12T04:46:37.865Z,14.22
2018-06-12T04:47:37.791Z,14.23
2018-06-12T04:48:37.853Z,14.23
2018-06-12T04:49:37.829Z,14.28
2018-06-12T04:50:37.850Z,14.26
2018-06-12T04:51:37.837Z,14.21
2018-06-12T04:52:37.816Z,14.21
2018-06-12T04:53:37.802Z,14.27
2018-06-12T04:54:38.004Z,14.29
2018-06-12T04:55:37.803Z,14.3
2018-06-12T04:56:37.889Z,14.21
2018-06-12T04:57:37.810Z,14.15
2018-06-12T04:58:37.814Z,14.18
2018-06-12T04:59:37.802Z,14.16
2018-06-12T05:00:37.840Z,14.18
2018-06-12T05:01:37.804Z,14.23
2018-06-12T05:02:37.800Z,14.18
2018-06-12T05:03:37.794Z,14.24
2018-06-12T05:04:37.794Z,14.28
2018-06-12T05:05:37.863Z,14.24
2018-06-12T05:06:37.800Z,14.25
2018-06-12T05:07:37.844Z,14.22
2018-06-12T05:08:37.958Z,14.22
2018-06-12T05:09:37.781Z,14.26
2018-06-12T05:10:38.196Z,14.11
2018-06-12T05:11:37.789Z,14.19
2018-06-12T05:12:37.783Z,14.18
2018-06-12T05:13:37.824Z,14.14
2018-06-12T05:14:38.212Z,14.17
2018-06-12T05:15:37.847Z,14.23
2018-06-12T05:16:37.801Z,14.25
2018-06-12T05:17:37.791Z,14.26
2018-06-12T05:18:38.128Z,14.23
2018-06-12T05:19:38.554Z,14.21
2018-06-12T05:20:38.051Z,14.24
2018-06-12T05:21:38.091Z,14.21
2018-06-12T05:22:37.877Z,14.21
2018-06-12T05:23:37.789Z,14.14
2018-06-12T05:24:37.805Z,14.17
2018-06-12T05:25:38.323Z,14.18
2018-06-12T05:26:37.784Z,14.16
2018-06-12T05:27:37.775Z,14.16
2018-06-12T05:28:38.018Z,14.1
2018-06-12T05:29:37.780Z,14.04
2018-06-12T05:30:37.864Z,14.07
2018-06-12T05:31:37.913Z,14.06
2018-06-12T05:32:37.965Z,14.06
2018-06-12T05:33:37.901Z,14.06
2018-06-12T05:34:37.780Z,14.03
2018-06-12T05:35:38.048Z,14.1
2018-06-12T05:36:37.824Z,14.17
2018-06-12T05:37:37.775Z,14.22
2018-06-12T05:38:37.799Z,14.18
2018-06-12T05:39:37.857Z,14.12
2018-06-12T05:40:37.815Z,14.01
2018-06-12T05:41:37.818Z,13.97
2018-06-12T05:42:37.843Z,14.04
2018-06-12T05:43:37.818Z,14.05
2018-06-12T05:44:37.829Z,14.04
2018-06-12T05:45:38.152Z,14.11
2018-06-12T05:46:37.785Z,14.11
2018-06-12T05:47:37.821Z,14.15
2018-06-12T05:48:37.994Z,14.09
2018-06-12T05:49:37.804Z,14.08
2018-06-12T05:50:37.789Z,14.12
2018-06-12T05:51:37.821Z,14.17
2018-06-12T05:52:37.844Z,14.21
2018-06-12T05:53:37.860Z,14.18
2018-06-12T05:54:37.792Z,14.16
2018-06-12T05:55:37.940Z,14.19
2018-06-12T05:56:37.784Z,14.15
2018-06-12T05:57:37.788Z,14.08
2018-06-12T05:58:37.776Z,14.17
2018-06-12T05:59:37.794Z,14.02
2018-06-12T06:00:37.786Z,13.98
2018-06-12T06:01:37.840Z,13.96
2018-06-12T06:02:37.812Z,14.04
2018-06-12T06:03:37.763Z,14.09
2018-06-12T06:04:37.787Z,14.09
2018-06-12T06:05:37.771Z,14.08
2018-06-12T06:06:37.803Z,14.15
2018-06-12T06:07:37.790Z,14.1
2018-06-12T06:08:37.807Z,14.19
2018-06-12T06:09:37.772Z,14.1
2018-06-12T06:10:38.018Z,14.14
2018-06-12T06:11:37.781Z,14.15
2018-06-12T06:12:37.816Z,14.01
2018-06-12T06:13:37.809Z,14.12
2018-06-12T06:14:37.775Z,14.17
2018-06-12T06:15:37.779Z,14.14
2018-06-12T06:16:37.788Z,14.11
2018-06-12T06:17:37.801Z,14.14
2018-06-12T06:18:37.791Z,14.11
2018-06-12T06:19:37.775Z,14.19
2018-06-12T06:20:37.893Z,14.19
2018-06-12T06:21:37.843Z,14.13
2018-06-12T06:22:38.128Z,14.15
2018-06-12T06:23:37.805Z,14.1
2018-06-12T06:24:37.776Z,14.04
2018-06-12T06:25:38.062Z,14.04
2018-06-12T06:26:37.828Z,13.97
2018-06-12T06:27:37.806Z,14.04
2018-06-12T06:28:37.786Z,14.07
2018-06-12T06:29:38.040Z,14.11
2018-06-12T06:30:37.851Z,14.12
2018-06-12T06:31:37.776Z,14.03
2018-06-12T06:32:37.804Z,14
2018-06-12T06:33:37.952Z,14.08
2018-06-12T06:34:37.973Z,14.05
2018-06-12T06:35:37.825Z,14.15
2018-06-12T06:36:37.855Z,14.12
2018-06-12T06:37:37.851Z,14.13
2018-06-12T06:38:37.890Z,13.98
2018-06-12T06:39:37.797Z,14.03
2018-06-12T06:40:37.840Z,14.07
2018-06-12T06:41:37.904Z,14.09
2018-06-12T06:42:37.838Z,14.12
2018-06-12T06:43:37.862Z,14.13
2018-06-12T06:44:37.821Z,14.09
2018-06-12T06:45:37.820Z,14.11
2018-06-12T06:46:37.845Z,14.13
2018-06-12T06:47:37.865Z,14.13
2018-06-12T06:48:37.818Z,14.08
2018-06-12T06:49:37.841Z,14.09
2018-06-12T06:50:37.823Z,14.03
2018-06-12T06:51:37.985Z,13.95
2018-06-12T06:52:37.850Z,13.99
2018-06-12T06:53:38.149Z,13.96
2018-06-12T06:54:37.806Z,14.03
2018-06-12T06:55:38.211Z,14.06
2018-06-12T06:56:37.817Z,14.1
2018-06-12T06:57:37.890Z,14.15
2018-06-12T06:58:37.834Z,14.1
2018-06-12T06:59:37.843Z,14.01
2018-06-12T07:00:37.859Z,13.87
2018-06-12T07:01:37.850Z,13.94
2018-06-12T07:02:37.847Z,14.02
2018-06-12T07:03:37.836Z,14.09
2018-06-12T07:04:37.816Z,14.07
2018-06-12T07:05:37.832Z,14
2018-06-12T07:06:37.827Z,13.95
2018-06-12T07:07:38.126Z,13.99
2018-06-12T07:08:37.826Z,14.05
2018-06-12T07:09:37.887Z,14.11
2018-06-12T07:10:37.808Z,14.01
2018-06-12T07:11:37.856Z,14.05
2018-06-12T07:12:37.821Z,14.07
2018-06-12T07:13:37.816Z,14.04
2018-06-12T07:14:37.818Z,14.03
2018-06-12T07:15:37.810Z,14.09
2018-06-12T07:16:37.844Z,14.09
2018-06-12T07:17:37.815Z,14.05
2018-06-12T07:18:37.875Z,14.06
2018-06-12T07:19:37.818Z,14
2018-06-12T07:20:37.835Z,13.98
2018-06-12T07:21:37.920Z,14
2018-06-12T07:22:37.833Z,13.96
2018-06-12T07:23:38.001Z,13.97
2018-06-12T07:24:37.817Z,13.99
2018-06-12T07:25:37.821Z,13.99
2018-06-12T07:26:37.875Z,13.92
2018-06-12T07:27:37.902Z,13.85
2018-06-12T07:28:37.825Z,13.86
2018-06-12T07:29:37.838Z,13.83
2018-06-12T07:30:37.841Z,13.91
2018-06-12T07:31:37.881Z,13.98
2018-06-12T07:32:37.872Z,13.92
2018-06-12T07:33:37.863Z,13.97
2018-06-12T07:34:38.053Z,14.03
2018-06-12T07:35:37.865Z,14.04
2018-06-12T07:36:37.926Z,14.03
2018-06-12T07:37:39.036Z,13.98
2018-06-12T07:38:37.858Z,13.93
2018-06-12T07:39:37.843Z,14.03
2018-06-12T07:40:37.936Z,13.93
2018-06-12T07:41:38.596Z,13.99
2018-06-12T07:42:37.965Z,14.02
2018-06-12T07:43:37.832Z,14.1
2018-06-12T07:44:37.834Z,14.05
2018-06-12T07:45:37.837Z,14.04
2018-06-12T07:46:37.849Z,14.02
2018-06-12T07:47:37.863Z,14.1
2018-06-12T07:48:37.896Z,13.99
2018-06-12T07:49:37.882Z,14.06
2018-06-12T07:50:37.821Z,14.03
2018-06-12T07:51:37.852Z,14.04
2018-06-12T07:52:38.003Z,14.11
2018-06-12T07:53:37.867Z,14.11
2018-06-12T07:54:37.807Z,14.08
2018-06-12T07:55:37.955Z,14.11
2018-06-12T07:56:37.891Z,14.06
2018-06-12T07:57:37.887Z,14.07
2018-06-12T07:58:37.922Z,14.12
2018-06-12T07:59:37.881Z,14.13
2018-06-12T08:00:37.869Z,14.13
2018-06-12T08:01:37.848Z,14.16
2018-06-12T08:02:37.843Z,14.2
2018-06-12T08:03:37.844Z,14.21
2018-06-12T08:04:37.871Z,14.11
2018-06-12T08:05:37.945Z,14.14
2018-06-12T08:06:37.890Z,14.08
2018-06-12T08:07:37.942Z,14.04
2018-06-12T08:08:38.020Z,14.08
2018-06-12T08:09:37.882Z,14.09
2018-06-12T08:10:37.854Z,14.03
2018-06-12T08:11:37.884Z,14.11
2018-06-12T08:12:37.858Z,14.18
2018-06-12T08:13:37.887Z,14.17
2018-06-12T08:14:37.850Z,14.16
2018-06-12T08:15:37.894Z,14.19
2018-06-12T08:16:37.912Z,14.09
2018-06-12T08:17:37.901Z,14.25
2018-06-12T08:18:38.219Z,14.22
2018-06-12T08:19:37.854Z,14.06
2018-06-12T08:20:38.017Z,14.13
2018-06-12T08:21:37.855Z,14.19
2018-06-12T08:22:37.999Z,14.26
2018-06-12T08:23:37.961Z,14.15
2018-06-12T08:24:37.915Z,14.29
2018-06-12T08:25:37.876Z,14.28
2018-06-12T08:26:37.864Z,14.23
2018-06-12T08:27:37.870Z,14.24
2018-06-12T08:28:37.901Z,14.19
2018-06-12T08:29:38.379Z,14.22
2018-06-12T08:30:38.331Z,14.31
2018-06-12T08:31:37.854Z,14.4
2018-06-12T08:32:37.853Z,14.41
2018-06-12T08:33:37.882Z,14.23
2018-06-12T08:34:37.977Z,14.22
2018-06-12T08:35:38.364Z,14.32
2018-06-12T08:36:37.882Z,14.34
2018-06-12T08:37:37.871Z,14.41
2018-06-12T08:38:37.879Z,14.27
2018-06-12T08:39:37.883Z,14.16
2018-06-12T08:40:37.895Z,14.2
2018-06-12T08:41:37.966Z,14.22
2018-06-12T08:42:37.977Z,14.19
2018-06-12T08:43:37.876Z,14.14
2018-06-12T08:44:38.167Z,14.16
2018-06-12T08:45:37.864Z,14.17
2018-06-12T08:46:37.897Z,14.22
2018-06-12T08:47:38.016Z,14.14
2018-06-12T08:48:37.874Z,14.15
2018-06-12T08:49:38.026Z,14.27
2018-06-12T08:50:38.110Z,14.26
2018-06-12T08:51:37.983Z,14.43
2018-06-12T08:52:37.891Z,14.37
2018-06-12T08:53:37.905Z,14.38
2018-06-12T08:54:37.881Z,14.33
2018-06-12T08:55:37.914Z,14.51
2018-06-12T08:56:38.075Z,14.31
2018-06-12T08:57:38.108Z,14.34
2018-06-12T08:58:37.896Z,14.27
2018-06-12T08:59:37.884Z,14.39
2018-06-12T09:00:37.928Z,14.5
2018-06-12T09:01:37.916Z,14.57
2018-06-12T09:02:38.301Z,14.58
2018-06-12T09:03:37.901Z,14.59
2018-06-12T09:04:38.042Z,14.74
2018-06-12T09:05:38.045Z,14.86
2018-06-12T09:06:37.905Z,14.25
2018-06-12T09:07:38.084Z,14.42
2018-06-12T09:08:37.921Z,14.5
2018-06-12T09:09:38.073Z,14.45
2018-06-12T09:10:38.016Z,14.49
2018-06-12T09:11:37.959Z,14.47
2018-06-12T09:12:37.921Z,14.53
2018-06-12T09:13:37.904Z,14.54
2018-06-12T09:14:38.007Z,14.32
2018-06-12T09:15:38.160Z,14.32
2018-06-12T09:16:37.975Z,14.42
2018-06-12T09:17:38.074Z,14.36
2018-06-12T09:18:38.107Z,14.35
2018-06-12T09:19:38.129Z,14.28
2018-06-12T09:20:37.925Z,14.26
2018-06-12T09:21:37.890Z,14.25
2018-06-12T09:22:37.894Z,14.26
2018-06-12T09:23:37.881Z,14.26
2018-06-12T09:24:37.906Z,14.25
2018-06-12T09:25:37.906Z,14.38
2018-06-12T09:26:38.237Z,14.33
2018-06-12T09:27:37.920Z,14.29
2018-06-12T09:28:37.899Z,14.4
2018-06-12T09:29:37.916Z,14.42
2018-06-12T09:30:37.892Z,14.29
2018-06-12T09:31:37.928Z,14.43
2018-06-12T09:32:37.894Z,14.26
2018-06-12T09:33:37.902Z,14.54
2018-06-12T09:34:37.930Z,14.56
2018-06-12T09:35:37.886Z,14.46
2018-06-12T09:36:37.891Z,14.39
2018-06-12T09:37:37.925Z,14.38
2018-06-12T09:38:37.904Z,14.35
2018-06-12T09:39:37.892Z,14.4
2018-06-12T09:40:37.917Z,14.45
2018-06-12T09:41:37.996Z,14.48
2018-06-12T09:42:37.907Z,14.59
2018-06-12T09:43:37.916Z,14.51
2018-06-12T09:44:37.905Z,14.5
2018-06-12T09:45:37.911Z,14.63
2018-06-12T09:46:37.887Z,14.59
2018-06-12T09:47:37.909Z,14.46
2018-06-12T09:48:37.905Z,14.57
2018-06-12T09:49:37.945Z,14.58
2018-06-12T09:50:38.027Z,14.57
2018-06-12T09:51:37.967Z,14.72
2018-06-12T09:52:37.944Z,14.67
2018-06-12T09:53:38.209Z,14.64
2018-06-12T09:54:37.998Z,14.5
2018-06-12T09:55:38.061Z,14.58
2018-06-12T09:56:37.996Z,14.61
2018-06-12T09:57:38.397Z,14.68
2018-06-12T09:58:38.125Z,14.77
2018-06-12T09:59:38.059Z,14.57
2018-06-12T10:00:37.930Z,14.5
2018-06-12T10:01:37.926Z,14.71
2018-06-12T10:02:37.922Z,14.53
2018-06-12T10:03:38.235Z,14.53
2018-06-12T10:04:37.980Z,14.61
2018-06-12T10:05:37.973Z,14.61
2018-06-12T10:06:37.945Z,14.47
2018-06-12T10:07:37.929Z,14.31
2018-06-12T10:08:38.189Z,14.51
2018-06-12T10:09:38.351Z,14.39
2018-06-12T10:10:38.066Z,14.42
2018-06-12T10:11:38.240Z,14.54
2018-06-12T10:12:37.927Z,14.54
2018-06-12T10:13:37.997Z,14.45
2018-06-12T10:14:38.114Z,14.3
2018-06-12T10:15:37.976Z,14.36
2018-06-12T10:16:37.929Z,14.53
2018-06-12T10:17:37.911Z,14.68
2018-06-12T10:18:37.919Z,14.63
2018-06-12T10:19:37.987Z,14.74
2018-06-12T10:20:37.925Z,14.59
2018-06-12T10:21:37.906Z,14.51
2018-06-12T10:22:38.071Z,14.51
2018-06-12T10:23:38.004Z,14.41
2018-06-12T10:24:38.264Z,14.54
2018-06-12T10:25:38.022Z,14.58
2018-06-12T10:26:38.028Z,14.62
2018-06-12T10:27:38.072Z,14.53
2018-06-12T10:28:37.940Z,14.48
2018-06-12T10:29:37.997Z,14.49
2018-06-12T10:30:38.068Z,14.45
2018-06-12T10:31:38.134Z,14.52
2018-06-12T10:32:38.009Z,14.48
2018-06-12T10:33:37.960Z,14.49
2018-06-12T10:34:38.125Z,14.52
2018-06-12T10:35:38.091Z,14.56
2018-06-12T10:36:38.054Z,14.55
2018-06-12T10:37:38.033Z,14.59
2018-06-12T10:38:38.040Z,14.57
2018-06-12T10:39:38.008Z,14.61
2018-06-12T10:40:38.056Z,14.56
2018-06-12T10:41:38.031Z,14.52
2018-06-12T10:42:38.037Z,14.53
2018-06-12T10:43:38.404Z,14.69
2018-06-12T10:44:37.968Z,14.69
2018-06-12T10:45:37.973Z,14.68
2018-06-12T10:46:37.972Z,14.64
2018-06-12T10:47:37.941Z,14.66
2018-06-12T10:48:37.917Z,14.82
2018-06-12T10:49:37.966Z,14.85
2018-06-12T10:50:37.949Z,14.89
2018-06-12T10:51:37.939Z,14.82
2018-06-12T10:52:38.035Z,14.91
2018-06-12T10:53:37.946Z,14.9
2018-06-12T10:54:37.947Z,14.71
2018-06-12T10:55:38.062Z,14.72
2018-06-12T10:56:37.964Z,14.88
2018-06-12T10:57:37.994Z,15.02
2018-06-12T10:58:37.949Z,14.68
2018-06-12T10:59:37.932Z,14.89
2018-06-12T11:00:37.950Z,14.91
2018-06-12T11:01:38.026Z,14.81
2018-06-12T11:02:37.959Z,14.82
2018-06-12T11:03:38.415Z,14.86
2018-06-12T11:04:38.061Z,14.99
2018-06-12T11:05:38.040Z,14.94
2018-06-12T11:06:37.987Z,15.02
2018-06-12T11:07:38.045Z,14.93
2018-06-12T11:08:38.115Z,15.05
2018-06-12T11:09:37.982Z,14.91
2018-06-12T11:10:37.996Z,14.98
2018-06-12T11:11:38.092Z,14.99
2018-06-12T11:12:38.012Z,15.04
2018-06-12T11:13:37.953Z,14.87
2018-06-12T11:14:38.101Z,14.92
2018-06-12T11:15:37.959Z,14.9
2018-06-12T11:16:38.110Z,14.96
2018-06-12T11:17:38.086Z,15.01
2018-06-12T11:18:37.973Z,15.21
2018-06-12T11:19:37.968Z,15.22
2018-06-12T11:20:38.255Z,15.27
2018-06-12T11:21:38.098Z,15.24
2018-06-12T11:22:38.076Z,15.14
2018-06-12T11:23:38.043Z,15.41
2018-06-12T11:24:37.982Z,15.43
2018-06-12T11:25:38.034Z,15.39
2018-06-12T11:26:38.065Z,15.56
2018-06-12T11:27:37.978Z,15.34
2018-06-12T11:28:38.040Z,15.5
2018-06-12T11:29:38.082Z,15.35
2018-06-12T11:30:37.999Z,15.43
2018-06-12T11:31:38.032Z,15.45
2018-06-12T11:32:37.972Z,15.35
2018-06-12T11:33:37.977Z,15.42
2018-06-12T11:34:38.085Z,15.4
2018-06-12T11:35:37.992Z,15.28
2018-06-12T11:36:37.984Z,15.49
2018-06-12T11:37:38.065Z,15.21
2018-06-12T11:38:38.159Z,15.3
2018-06-12T11:39:38.050Z,15.49
2018-06-12T11:40:38.092Z,15.41
2018-06-12T11:41:38.137Z,15.2
2018-06-12T11:42:38.057Z,15.32
2018-06-12T11:43:38.004Z,15.3
2018-06-12T11:44:38.032Z,15.34
2018-06-12T11:45:38.005Z,15.29
2018-06-12T11:46:38.003Z,15.01
2018-06-12T11:47:38.116Z,14.92
2018-06-12T11:48:38.041Z,15.33
2018-06-12T11:49:38.035Z,15.45
2018-06-12T11:50:38.066Z,15.38
2018-06-12T11:51:38.075Z,15.26
2018-06-12T11:52:38.223Z,15.12
2018-06-12T11:53:50.404Z,15.1
2018-06-12T11:54:37.990Z,14.84
2018-06-12T11:55:38.031Z,15.01
2018-06-12T11:56:38.036Z,15.12
2018-06-12T11:57:38.038Z,15.02
2018-06-12T11:58:37.983Z,15.07
2018-06-12T11:59:38.107Z,15.24
2018-06-12T12:00:38.006Z,15.19
2018-06-12T12:01:37.986Z,15.45
2018-06-12T12:02:37.972Z,15.34
2018-06-12T12:03:38.048Z,15.35
2018-06-12T12:04:38.016Z,15.42
2018-06-12T12:05:37.987Z,15.43
2018-06-12T12:06:38.043Z,15.47
2018-06-12T12:07:38.065Z,15.04
2018-06-12T12:08:38.006Z,15.15
2018-06-12T12:09:38.014Z,15.22
2018-06-12T12:10:38.031Z,15.33
2018-06-12T12:11:38.031Z,15.27
2018-06-12T12:12:38.005Z,15.35
2018-06-12T12:13:38.061Z,15.24
2018-06-12T12:14:38.084Z,15.33
2018-06-12T12:15:38.035Z,15.28
2018-06-12T12:16:38.083Z,15.36
2018-06-12T12:17:38.059Z,15.48
2018-06-12T12:18:38.026Z,15.45
2018-06-12T12:19:38.059Z,15.2
2018-06-12T12:20:38.006Z,15.33
2018-06-12T12:21:38.116Z,15.41
2018-06-12T12:22:38.103Z,15.41
2018-06-12T12:23:38.030Z,15.45
2018-06-12T12:24:38.064Z,15.45
2018-06-12T12:25:38.234Z,15.53
2018-06-12T12:26:38.124Z,15.54
2018-06-12T12:27:38.058Z,15.56
2018-06-12T12:28:38.434Z,15.44
2018-06-12T12:29:38.119Z,15.57
2018-06-12T12:30:38.205Z,15.29
2018-06-12T12:31:38.141Z,15.22
2018-06-12T12:32:38.073Z,15.17
2018-06-12T12:33:38.019Z,15.23
2018-06-12T12:34:38.198Z,15.23
2018-06-12T12:35:38.060Z,15.36
2018-06-12T12:36:38.117Z,15.13
2018-06-12T12:37:38.082Z,15.38
2018-06-12T12:38:38.082Z,15.68
2018-06-12T12:39:38.049Z,15.49
2018-06-12T12:40:38.058Z,15.57
2018-06-12T12:41:38.091Z,15.71
2018-06-12T12:42:37.995Z,15.55
2018-06-12T12:43:38.301Z,16.05
2018-06-12T12:44:38.026Z,16.09
2018-06-12T12:45:38.048Z,15.79
2018-06-12T12:46:38.456Z,15.88
2018-06-12T12:47:38.105Z,15.87
2018-06-12T12:48:38.083Z,15.57
2018-06-12T12:49:38.064Z,15.24
2018-06-12T12:50:38.039Z,16.03
2018-06-12T12:51:38.073Z,15.48
2018-06-12T12:52:38.049Z,15.47
2018-06-12T12:53:38.064Z,15.55
2018-06-12T12:54:38.040Z,15.69